createdAt,value
2018-09-11T00:00:13.843Z,77.50
2018-09-11T00:01:13.854Z,76.82
2018-09-11T00:03:06.773Z,76.82
2018-09-11T00:04:06.789Z,77.21
2018-09-11T00:05:59.714Z,77.78
2018-09-11T00:06:59.723Z,77.46
2018-09-11T00:08:52.632Z,77.84
2018-09-11T00:09:52.650Z,77.84
2018-09-11T00:11:45.575Z,77.84
2018-09-11T00:12:45.583Z,77.75
2018-09-11T00:14:39.512Z,78.36
2018-09-11T00:15:39.527Z,78.17
2018-09-11T00:17:32.440Z,78.27
2018-09-11T00:18:32.461Z,77.78
2018-09-11T00:20:25.378Z,77.88
2018-09-11T00:21:25.391Z,78.36
2018-09-11T00:23:18.330Z,77.88
2018-09-11T00:24:18.333Z,78.27
2018-09-11T00:26:11.254Z,77.88
2018-09-11T00:27:11.264Z,78.08
2018-09-11T00:29:04.176Z,77.98
2018-09-11T00:30:04.196Z,77.59
2018-09-11T00:31:57.116Z,77.88
2018-09-11T00:32:57.128Z,77.40
2018-09-11T00:34:50.042Z,77.88
2018-09-11T00:35:50.060Z,77.78
2018-09-11T00:37:42.978Z,77.59
2018-09-11T00:38:42.990Z,77.59
2018-09-11T00:40:35.910Z,77.78
2018-09-11T00:41:35.921Z,77.50
2018-09-11T00:43:28.841Z,77.98
2018-09-11T00:44:28.867Z,77.31
2018-09-11T00:46:21.779Z,77.50
2018-09-11T00:47:21.793Z,77.50
2018-09-11T00:49:14.703Z,77.44
2018-09-11T00:50:14.727Z,77.73
2018-09-11T00:52:07.646Z,77.06
2018-09-11T00:53:07.659Z,77.34
2018-09-11T00:55:00.575Z,77.11
2018-09-11T00:56:00.597Z,77.11
2018-09-11T00:57:53.518Z,77.01
2018-09-11T00:58:53.532Z,77.78
2018-09-11T01:00:46.464Z,78.11
2018-09-11T01:01:46.466Z,77.15
2018-09-11T01:03:39.390Z,77.53
2018-09-11T01:04:39.398Z,77.31
2018-09-11T01:06:32.319Z,77.01
2018-09-11T01:07:32.329Z,77.15
2018-09-11T01:09:25.247Z,77.11
2018-09-11T01:10:25.288Z,77.15
2018-09-11T01:12:18.190Z,77.01
2018-09-11T01:13:18.202Z,77.25
2018-09-11T01:15:11.114Z,76.92
2018-09-11T01:16:11.155Z,77.21
2018-09-11T01:18:04.051Z,77.50
2018-09-11T01:19:04.062Z,77.50
2018-09-11T01:20:56.975Z,77.11
2018-09-11T01:21:57.004Z,77.25
2018-09-11T01:23:49.919Z,77.15
2018-09-11T01:24:49.931Z,77.31
2018-09-11T01:26:42.870Z,77.15
2018-09-11T01:27:42.886Z,77.25
2018-09-11T01:29:35.805Z,77.69
2018-09-11T01:30:35.821Z,77.11
2018-09-11T01:32:28.741Z,77.88
2018-09-11T01:33:28.755Z,77.11
2018-09-11T01:35:21.666Z,77.31
2018-09-11T01:36:21.689Z,77.01
2018-09-11T01:38:14.605Z,77.40
2018-09-11T01:39:14.623Z,76.73
2018-09-11T01:41:07.531Z,77.31
2018-09-11T01:42:07.557Z,77.11
2018-09-11T01:44:00.473Z,77.15
2018-09-11T01:45:00.488Z,77.11
2018-09-11T01:46:53.398Z,77.31
2018-09-11T01:47:53.420Z,77.01
2018-09-11T01:49:46.339Z,77.40
2018-09-11T01:50:46.350Z,77.53
2018-09-11T01:52:39.270Z,77.06
2018-09-11T01:53:39.282Z,77.69
2018-09-11T01:55:32.193Z,77.78
2018-09-11T01:56:32.216Z,77.78
2018-09-11T01:58:25.135Z,77.11
2018-09-11T01:59:25.143Z,76.73
2018-09-11T02:01:18.055Z,77.40
2018-09-11T02:02:18.077Z,77.50
2018-09-11T02:04:10.997Z,77.98
2018-09-11T02:05:11.011Z,77.88
2018-09-11T02:07:03.920Z,78.23
2018-09-11T02:08:03.941Z,78.90
2018-09-11T02:09:56.865Z,78.80
2018-09-11T02:10:56.874Z,78.52
2018-09-11T02:12:49.792Z,78.52
2018-09-11T02:13:49.805Z,78.52
2018-09-11T02:15:42.709Z,78.70
2018-09-11T02:16:42.733Z,78.90
2018-09-11T02:18:35.661Z,78.99
2018-09-11T02:19:35.664Z,78.80
2018-09-11T02:21:28.581Z,79.09
2018-09-11T02:22:28.593Z,79.57
2018-09-11T02:24:21.512Z,79.47
2018-09-11T02:25:21.525Z,79.67
2018-09-11T02:27:14.434Z,80.11
2018-09-11T02:28:14.457Z,80.30
2018-09-11T02:30:07.374Z,80.30
2018-09-11T02:31:07.389Z,80.11
2018-09-11T02:33:00.324Z,80.40
2018-09-11T02:34:00.337Z,80.58
2018-09-11T02:35:53.333Z,80.87
2018-09-11T02:36:53.250Z,80.87
2018-09-11T02:38:46.374Z,80.87
2018-09-11T02:39:46.388Z,81.07
2018-09-11T02:41:39.298Z,81.07
2018-09-11T02:42:39.317Z,81.07
2018-09-11T02:44:32.242Z,81.26
2018-09-11T02:45:32.250Z,81.35
2018-09-11T02:47:25.158Z,80.68
2018-09-11T02:48:25.178Z,81.64
2018-09-11T02:50:18.098Z,81.26
2018-09-11T02:51:18.110Z,81.64
2018-09-11T02:53:11.021Z,81.64
2018-09-11T02:54:11.041Z,80.78
2018-09-11T02:56:03.959Z,80.68
2018-09-11T02:57:03.970Z,80.97
2018-09-11T02:58:56.902Z,81.26
2018-09-11T02:59:56.900Z,81.64
2018-09-11T03:01:49.970Z,80.68
2018-09-11T03:02:49.986Z,81.54
2018-09-11T03:04:42.904Z,81.64
2018-09-11T03:05:42.912Z,81.54
2018-09-11T03:07:35.827Z,81.84
2018-09-11T03:08:35.851Z,81.84
2018-09-11T03:10:28.765Z,81.64
2018-09-11T03:11:28.777Z,81.64
2018-09-11T03:13:21.684Z,81.74
2018-09-11T03:14:21.706Z,81.64
2018-09-11T03:16:14.622Z,81.54
2018-09-11T03:17:14.634Z,81.64
2018-09-11T03:19:07.544Z,81.74
2018-09-11T03:20:07.562Z,81.74
2018-09-11T03:22:00.485Z,81.45
2018-09-11T03:23:00.499Z,81.64
2018-09-11T03:24:53.414Z,81.64
2018-09-11T03:25:53.426Z,81.64
2018-09-11T03:27:46.332Z,81.54
2018-09-11T03:28:46.353Z,81.35
2018-09-11T03:30:39.270Z,80.97
2018-09-11T03:31:39.281Z,81.26
2018-09-11T03:33:32.200Z,80.78
2018-09-11T03:34:32.227Z,80.87
2018-09-11T03:36:25.142Z,81.07
2018-09-11T03:37:25.155Z,80.97
2018-09-11T03:39:18.068Z,80.78
2018-09-11T03:40:18.092Z,80.53
2018-09-11T03:42:11.003Z,80.24
2018-09-11T03:43:11.016Z,80.34
2018-09-11T03:45:03.947Z,79.38
2018-09-11T03:46:03.942Z,79.67
2018-09-11T03:47:56.854Z,79.28
2018-09-11T03:48:56.874Z,79.38
2018-09-11T03:50:49.790Z,78.90
2018-09-11T03:51:49.806Z,78.90
2018-09-11T03:53:42.737Z,78.32
2018-09-11T03:54:42.749Z,78.52
2018-09-11T03:56:36.645Z,78.70
2018-09-11T03:57:36.659Z,78.13
2018-09-11T03:59:29.567Z,77.94
2018-09-11T04:00:29.657Z,78.03
2018-09-11T04:02:22.507Z,77.94
2018-09-11T04:03:22.522Z,78.23
2018-09-11T04:05:15.435Z,77.84
2018-09-11T04:06:15.451Z,77.56
2018-09-11T04:08:08.379Z,78.13
2018-09-11T04:09:08.389Z,78.13
2018-09-11T04:11:01.310Z,77.36
2018-09-11T04:12:01.343Z,77.84
2018-09-11T04:13:54.233Z,77.46
2018-09-11T04:14:54.254Z,77.65
2018-09-11T04:16:47.180Z,77.36
2018-09-11T04:17:47.185Z,76.69
2018-09-11T04:19:40.099Z,77.08
2018-09-11T04:20:40.120Z,76.69
2018-09-11T04:22:33.049Z,77.75
2018-09-11T04:23:33.066Z,77.51
2018-09-11T04:25:25.976Z,77.84
2018-09-11T04:26:25.993Z,77.80
2018-09-11T04:28:18.909Z,77.42
2018-09-11T04:29:18.922Z,77.42
2018-09-11T04:31:11.832Z,77.51
2018-09-11T04:32:11.851Z,77.80
2018-09-11T04:34:04.770Z,77.51
2018-09-11T04:35:04.783Z,77.80
2018-09-11T04:36:57.705Z,77.33
2018-09-11T04:37:57.711Z,77.51
2018-09-11T04:39:50.621Z,77.42
2018-09-11T04:40:50.641Z,77.51
2018-09-11T04:42:43.565Z,77.61
2018-09-11T04:43:43.572Z,77.61
2018-09-11T04:45:36.481Z,77.75
2018-09-11T04:46:36.505Z,76.94
2018-09-11T04:48:29.425Z,77.33
2018-09-11T04:49:29.436Z,77.33
2018-09-11T04:51:22.346Z,77.65
2018-09-11T04:52:22.367Z,77.33
2018-09-11T04:54:15.283Z,77.65
2018-09-11T04:55:15.299Z,77.13
2018-09-11T04:57:08.209Z,77.04
2018-09-11T04:58:08.229Z,77.13
2018-09-11T05:00:01.151Z,77.23
2018-09-11T05:01:01.163Z,77.33
2018-09-11T05:02:54.090Z,77.23
2018-09-11T05:03:54.091Z,76.56
2018-09-11T05:05:47.011Z,77.04
2018-09-11T05:06:47.036Z,77.61
2018-09-11T05:08:40.494Z,77.13
2018-09-11T05:09:39.966Z,77.04
2018-09-11T05:11:32.887Z,77.51
2018-09-11T05:12:32.897Z,77.51
2018-09-11T05:14:25.817Z,77.33
2018-09-11T05:15:25.828Z,77.42
2018-09-11T05:17:18.736Z,77.80
2018-09-11T05:18:18.755Z,77.42
2018-09-11T05:20:11.673Z,78.00
2018-09-11T05:21:11.687Z,77.33
2018-09-11T05:23:04.596Z,77.71
2018-09-11T05:24:04.619Z,77.80
2018-09-11T05:25:57.536Z,77.61
2018-09-11T05:26:57.558Z,78.28
2018-09-11T05:28:50.464Z,78.28
2018-09-11T05:29:50.477Z,78.28
2018-09-11T05:31:43.388Z,78.00
2018-09-11T05:32:43.415Z,77.80
2018-09-11T05:34:36.326Z,78.19
2018-09-11T05:35:36.335Z,77.80
2018-09-11T05:37:29.246Z,77.61
2018-09-11T05:38:29.263Z,77.61
2018-09-11T05:40:22.190Z,77.80
2018-09-11T05:41:22.208Z,77.61
2018-09-11T05:43:15.120Z,77.42
2018-09-11T05:44:15.138Z,77.65
2018-09-11T05:46:08.060Z,76.98
2018-09-11T05:47:08.108Z,76.98
2018-09-11T05:49:01.006Z,77.84
2018-09-11T05:50:01.003Z,77.17
2018-09-11T05:51:53.912Z,76.59
2018-09-11T05:52:53.930Z,76.69
2018-09-11T05:54:46.856Z,76.79
2018-09-11T05:55:46.864Z,76.50
2018-09-11T05:57:39.779Z,76.88
2018-09-11T05:58:39.798Z,76.59
2018-09-11T06:00:32.712Z,76.34
2018-09-11T06:01:32.727Z,75.87
2018-09-11T06:03:25.639Z,76.06
2018-09-11T06:04:25.663Z,75.48
2018-09-11T06:06:18.580Z,75.96
2018-09-11T06:07:18.590Z,75.57
2018-09-11T06:09:11.501Z,74.60
2018-09-11T06:10:11.520Z,73.15
2018-09-11T06:12:04.440Z,71.01
2018-09-11T06:13:04.452Z,70.24
2018-09-11T06:14:57.379Z,68.10
2018-09-11T06:15:57.390Z,66.75
2018-09-11T06:17:50.299Z,65.91
2018-09-11T06:18:50.321Z,65.05
2018-09-11T06:20:43.243Z,64.11
2018-09-11T06:21:43.257Z,63.73
2018-09-11T06:23:36.170Z,62.22
2018-09-11T06:24:36.197Z,61.93
2018-09-11T06:26:29.109Z,61.57
2018-09-11T06:27:29.131Z,61.09
2018-09-11T06:29:22.082Z,60.10
2018-09-11T06:30:22.077Z,60.58
2018-09-11T06:32:14.994Z,61.74
2018-09-11T06:33:15.010Z,61.51
2018-09-11T06:35:07.926Z,62.09
2018-09-11T06:36:07.946Z,62.54
2018-09-11T06:38:00.879Z,63.31
2018-09-11T06:39:00.894Z,63.79
2018-09-11T06:40:53.823Z,64.34
2018-09-11T06:41:53.838Z,64.82
2018-09-11T06:43:46.758Z,65.37
2018-09-11T06:44:46.884Z,66.04
2018-09-11T06:46:39.701Z,66.42
2018-09-11T06:47:39.717Z,66.71
2018-09-11T06:49:32.633Z,66.62
2018-09-11T06:50:32.657Z,66.81
2018-09-11T06:52:25.606Z,67.16
2018-09-11T06:53:25.619Z,67.45
2018-09-11T06:55:18.534Z,68.03
2018-09-11T06:56:18.553Z,68.03
2018-09-11T06:58:11.474Z,67.93
2018-09-11T06:59:11.491Z,68.60
2018-09-11T07:01:04.420Z,68.32
2018-09-11T07:02:04.438Z,68.90
2018-09-11T07:03:57.348Z,68.70
2018-09-11T07:04:57.373Z,68.60
2018-09-11T07:06:50.297Z,68.70
2018-09-11T07:07:50.312Z,68.32
2018-09-11T07:09:43.226Z,68.32
2018-09-11T07:10:43.249Z,68.51
2018-09-11T07:12:36.177Z,68.51
2018-09-11T07:13:36.191Z,68.22
2018-09-11T07:15:29.103Z,68.60
2018-09-11T07:16:29.125Z,68.60
2018-09-11T07:18:22.048Z,68.44
2018-09-11T07:19:22.067Z,68.32
2018-09-11T07:21:14.976Z,68.51
2018-09-11T07:22:14.997Z,68.44
2018-09-11T07:24:07.920Z,67.97
2018-09-11T07:25:07.938Z,67.39
2018-09-11T07:27:00.872Z,67.87
2018-09-11T07:28:00.873Z,68.06
2018-09-11T07:29:53.784Z,67.87
2018-09-11T07:30:53.808Z,68.06
2018-09-11T07:32:46.733Z,68.13
2018-09-11T07:33:46.743Z,68.41
2018-09-11T07:35:39.659Z,68.70
2018-09-11T07:36:39.691Z,69.18
2018-09-11T07:38:32.610Z,69.38
2018-09-11T07:39:32.620Z,69.38
2018-09-11T07:41:25.534Z,68.22
2018-09-11T07:42:25.559Z,68.60
2018-09-11T07:44:18.481Z,69.70
2018-09-11T07:45:18.544Z,69.60
2018-09-11T07:47:11.407Z,68.35
2018-09-11T07:48:11.432Z,68.16
2018-09-11T07:50:04.353Z,68.06
2018-09-11T07:51:04.371Z,68.29
2018-09-11T07:52:57.312Z,67.42
2018-09-11T07:53:57.303Z,67.42
2018-09-11T07:55:50.219Z,67.42
2018-09-11T07:56:50.242Z,67.55
2018-09-11T07:58:43.191Z,67.36
2018-09-11T07:59:43.207Z,66.62
2018-09-11T08:01:36.122Z,65.95
2018-09-11T08:02:36.147Z,66.04
2018-09-11T08:04:29.073Z,66.04
2018-09-11T08:05:29.090Z,64.82
2018-09-11T08:07:22.003Z,64.53
2018-09-11T08:08:22.027Z,65.50
2018-09-11T08:10:14.948Z,64.92
2018-09-11T08:11:14.964Z,65.30
2018-09-11T08:13:07.880Z,64.92
2018-09-11T08:14:07.905Z,65.59
2018-09-11T08:16:00.829Z,64.43
2018-09-11T08:17:00.843Z,64.43
2018-09-11T08:18:53.775Z,64.34
2018-09-11T08:19:53.883Z,64.15
2018-09-11T08:21:46.706Z,63.67
2018-09-11T08:22:46.729Z,63.98
2018-09-11T08:24:39.658Z,63.40
2018-09-11T08:25:39.671Z,63.40
2018-09-11T08:27:32.585Z,63.21
2018-09-11T08:28:32.608Z,62.82
2018-09-11T08:30:25.529Z,63.12
2018-09-11T08:31:25.548Z,63.02
2018-09-11T08:33:18.466Z,63.02
2018-09-11T08:34:18.489Z,63.70
2018-09-11T08:36:11.423Z,63.79
2018-09-11T08:37:11.430Z,63.50
2018-09-11T08:39:04.358Z,63.79
2018-09-11T08:40:04.373Z,63.79
2018-09-11T08:41:57.289Z,63.40
2018-09-11T08:42:57.314Z,62.73
2018-09-11T08:44:50.239Z,62.28
2018-09-11T08:45:50.260Z,62.28
2018-09-11T08:47:43.176Z,62.18
2018-09-11T08:48:43.732Z,62.47
2018-09-11T08:50:36.130Z,61.89
2018-09-11T08:51:36.143Z,61.99
2018-09-11T08:53:29.062Z,61.70
2018-09-11T08:54:29.084Z,62.47
2018-09-11T08:56:22.037Z,61.41
2018-09-11T08:57:22.048Z,62.18
2018-09-11T08:59:14.966Z,61.51
2018-09-11T09:00:14.992Z,61.60
2018-09-11T09:02:07.923Z,62.18
2018-09-11T09:03:07.938Z,62.28
2018-09-11T09:05:00.866Z,62.08
2018-09-11T09:06:00.881Z,61.70
2018-09-11T09:07:53.802Z,61.51
2018-09-11T09:08:53.825Z,61.60
2018-09-11T09:10:46.751Z,61.31
2018-09-11T09:11:46.768Z,61.41
2018-09-11T09:13:39.687Z,61.51
2018-09-11T09:14:39.712Z,61.41
2018-09-11T09:16:32.636Z,61.60
2018-09-11T09:17:32.653Z,61.31
2018-09-11T09:19:25.604Z,61.60
2018-09-11T09:20:25.604Z,61.47
2018-09-11T09:22:18.524Z,61.51
2018-09-11T09:23:18.543Z,61.51
2018-09-11T09:25:11.481Z,61.86
2018-09-11T09:26:11.487Z,62.18
2018-09-11T09:28:04.404Z,62.18
2018-09-11T09:29:04.430Z,61.41
2018-09-11T09:30:57.374Z,60.76
2018-09-11T09:31:57.371Z,60.86
2018-09-11T09:33:50.286Z,60.96
2018-09-11T09:34:50.313Z,61.34
2018-09-11T09:36:43.253Z,60.69
2018-09-11T09:37:43.265Z,60.60
2018-09-11T09:39:36.188Z,59.92
2018-09-11T09:40:36.220Z,59.73
2018-09-11T09:42:29.148Z,60.11
2018-09-11T09:43:29.160Z,60.11
2018-09-11T09:45:22.078Z,60.11
2018-09-11T09:46:22.103Z,60.47
2018-09-11T09:48:15.053Z,60.11
2018-09-11T09:49:15.073Z,60.02
2018-09-11T09:51:08.003Z,59.53
2018-09-11T09:52:08.015Z,59.44
2018-09-11T09:54:00.937Z,58.95
2018-09-11T09:55:00.959Z,59.44
2018-09-11T09:56:53.886Z,58.95
2018-09-11T09:57:53.899Z,59.34
2018-09-11T09:59:46.823Z,59.83
2018-09-11T10:00:46.846Z,59.41
2018-09-11T10:02:39.776Z,59.70
2018-09-11T10:03:39.793Z,60.31
2018-09-11T10:05:32.708Z,59.92
2018-09-11T10:06:32.735Z,58.98
2018-09-11T10:08:25.662Z,58.50
2018-09-11T10:09:25.686Z,58.50
2018-09-11T10:11:18.803Z,58.12
2018-09-11T10:12:18.824Z,57.15
2018-09-11T10:14:11.752Z,57.54
2018-09-11T10:15:11.774Z,57.92
2018-09-11T10:17:04.695Z,57.28
2018-09-11T10:18:04.707Z,57.28
2018-09-11T10:19:57.629Z,56.21
2018-09-11T10:20:57.656Z,56.30
2018-09-11T10:22:50.581Z,56.67
2018-09-11T10:23:50.601Z,56.95
2018-09-11T10:25:43.533Z,56.67
2018-09-11T10:26:43.556Z,56.40
2018-09-11T10:28:36.486Z,56.60
2018-09-11T10:29:36.510Z,56.30
2018-09-11T10:31:29.423Z,56.47
2018-09-11T10:32:29.455Z,56.09
2018-09-11T10:34:22.385Z,56.67
2018-09-11T10:35:22.403Z,56.70
2018-09-11T10:37:15.321Z,56.11
2018-09-11T10:38:15.353Z,56.60
2018-09-11T10:40:08.286Z,56.50
2018-09-11T10:41:08.290Z,56.70
2018-09-11T10:43:01.225Z,56.79
2018-09-11T10:44:01.235Z,56.30
2018-09-11T10:45:54.155Z,56.50
2018-09-11T10:46:54.203Z,55.24
2018-09-11T10:48:47.151Z,55.07
2018-09-11T10:49:47.120Z,55.07
2018-09-11T10:51:40.066Z,55.27
2018-09-11T10:52:40.067Z,54.88
2018-09-11T10:54:33.000Z,54.79
2018-09-11T10:55:33.011Z,54.79
2018-09-11T10:57:25.924Z,54.01
2018-09-11T10:58:26.005Z,54.30
2018-09-11T11:00:18.944Z,54.30
2018-09-11T11:01:18.903Z,54.11
2018-09-11T11:03:12.057Z,54.88
2018-09-11T11:04:12.109Z,55.17
2018-09-11T11:06:04.922Z,54.69
2018-09-11T11:07:04.950Z,55.00
2018-09-11T11:08:57.873Z,55.20
2018-09-11T11:09:57.929Z,54.13
2018-09-11T11:11:50.831Z,54.52
2018-09-11T11:12:50.833Z,53.55
2018-09-11T11:14:43.780Z,54.33
2018-09-11T11:15:43.829Z,53.75
2018-09-11T11:17:36.719Z,53.45
2018-09-11T11:18:36.745Z,53.36
2018-09-11T11:20:29.673Z,52.87
2018-09-11T11:21:29.722Z,52.00
2018-09-11T11:23:22.609Z,52.58
2018-09-11T11:24:22.636Z,52.29
2018-09-11T11:26:15.638Z,52.29
2018-09-11T11:27:15.614Z,52.87
2018-09-11T11:29:09.504Z,53.00
2018-09-11T11:30:09.531Z,52.61
2018-09-11T11:32:02.447Z,50.87
2018-09-11T11:33:02.501Z,50.67
2018-09-11T11:34:55.410Z,50.77
2018-09-11T11:35:55.492Z,51.45
2018-09-11T11:37:48.349Z,51.16
2018-09-11T11:38:48.376Z,51.16
2018-09-11T11:40:41.302Z,52.12
2018-09-11T11:41:41.341Z,51.45
2018-09-11T11:43:34.236Z,50.60
2018-09-11T11:44:34.263Z,50.60
2018-09-11T11:46:27.326Z,50.31
2018-09-11T11:47:27.218Z,51.09
2018-09-11T11:49:20.147Z,50.41
2018-09-11T11:50:20.155Z,50.41
2018-09-11T11:52:14.301Z,49.92
2018-09-11T11:53:14.293Z,49.73
2018-09-11T11:55:07.299Z,49.24
2018-09-11T11:56:07.245Z,49.15
2018-09-11T11:58:00.196Z,49.54
2018-09-11T11:59:00.188Z,49.37
2018-09-11T12:00:53.109Z,49.37
2018-09-11T12:01:53.234Z,48.88
2018-09-11T12:03:46.055Z,49.66
2018-09-11T12:04:46.099Z,49.75
2018-09-11T12:06:39.029Z,49.56
2018-09-11T12:07:39.026Z,49.46
2018-09-11T12:09:31.940Z,49.27
2018-09-11T12:10:31.969Z,49.37
2018-09-11T12:12:24.900Z,49.27
2018-09-11T12:13:24.914Z,49.49
2018-09-11T12:15:18.852Z,48.90
2018-09-11T12:16:18.975Z,48.71
2018-09-11T12:18:11.806Z,48.90
2018-09-11T12:19:11.882Z,48.71
2018-09-11T12:21:04.758Z,48.71
2018-09-11T12:22:04.773Z,48.71
2018-09-11T12:23:57.704Z,48.80
2018-09-11T12:24:57.732Z,48.52
2018-09-11T12:26:50.766Z,48.80
2018-09-11T12:27:50.685Z,49.19
2018-09-11T12:29:43.606Z,48.52
2018-09-11T12:30:43.638Z,48.78
2018-09-11T12:32:36.564Z,48.69
2018-09-11T12:33:36.585Z,48.78
2018-09-11T12:35:29.508Z,48.90
2018-09-11T12:36:29.538Z,48.80
2018-09-11T12:38:22.467Z,48.71
2018-09-11T12:39:22.487Z,48.90
2018-09-11T12:41:15.410Z,48.13
2018-09-11T12:42:15.430Z,47.93
2018-09-11T12:44:08.349Z,48.52
2018-09-11T12:45:08.377Z,48.71
2018-09-11T12:47:02.055Z,48.80
2018-09-11T12:48:01.844Z,48.71
2018-09-11T12:49:54.253Z,48.73
2018-09-11T12:50:54.274Z,48.54
2018-09-11T12:52:47.202Z,47.47
2018-09-11T12:53:47.219Z,46.98
2018-09-11T12:55:40.148Z,47.08
2018-09-11T12:56:40.172Z,47.18
2018-09-11T12:58:33.093Z,47.66
2018-09-11T12:59:33.113Z,47.38
2018-09-11T13:01:26.066Z,47.08
2018-09-11T13:02:26.114Z,47.18
2018-09-11T13:04:18.981Z,46.89
2018-09-11T13:05:19.009Z,47.18
2018-09-11T13:07:11.960Z,47.28
2018-09-11T13:08:11.974Z,47.08
2018-09-11T13:10:04.900Z,46.98
2018-09-11T13:11:04.927Z,46.89
2018-09-11T13:12:57.856Z,47.30
2018-09-11T13:13:57.880Z,46.42
2018-09-11T13:15:50.796Z,46.42
2018-09-11T13:16:50.822Z,46.23
2018-09-11T13:18:43.755Z,45.17
2018-09-11T13:19:43.781Z,45.07
2018-09-11T13:21:36.696Z,44.97
2018-09-11T13:22:36.727Z,45.45
2018-09-11T13:24:29.650Z,45.36
2018-09-11T13:25:29.739Z,44.87
2018-09-11T13:27:22.603Z,45.07
2018-09-11T13:28:22.626Z,45.07
2018-09-11T13:30:15.544Z,44.78
2018-09-11T13:31:15.568Z,44.97
2018-09-11T13:33:08.503Z,45.17
2018-09-11T13:34:08.522Z,44.78
2018-09-11T13:36:01.447Z,44.87
2018-09-11T13:37:01.472Z,44.79
2018-09-11T13:38:54.399Z,44.60
2018-09-11T13:39:54.415Z,44.41
2018-09-11T13:41:47.341Z,43.82
2018-09-11T13:42:47.370Z,43.90
2018-09-11T13:44:40.295Z,44.29
2018-09-11T13:45:40.327Z,44.48
2018-09-11T13:47:33.324Z,43.92
2018-09-11T13:48:33.315Z,43.24
2018-09-11T13:50:26.191Z,43.15
2018-09-11T13:51:26.216Z,42.85
2018-09-11T13:53:20.147Z,43.05
2018-09-11T13:54:20.162Z,42.95
2018-09-11T13:56:13.137Z,42.46
2018-09-11T13:57:13.111Z,42.19
2018-09-11T13:59:06.037Z,42.49
2018-09-11T14:00:06.586Z,42.39
2018-09-11T14:01:58.981Z,42.29
2018-09-11T14:02:59.008Z,41.51
2018-09-11T14:04:51.948Z,41.61
2018-09-11T14:05:51.962Z,41.71
2018-09-11T14:07:44.884Z,41.90
2018-09-11T14:08:44.919Z,42.49
2018-09-11T14:10:37.843Z,42.87
2018-09-11T14:11:37.861Z,42.87
2018-09-11T14:13:30.798Z,42.19
2018-09-11T14:14:30.806Z,42.10
2018-09-11T14:16:23.731Z,42.10
2018-09-11T14:17:23.768Z,42.29
2018-09-11T14:19:16.717Z,42.39
2018-09-11T14:20:16.740Z,42.49
2018-09-11T14:22:09.659Z,42.39
2018-09-11T14:23:09.691Z,42.29
2018-09-11T14:25:02.619Z,42.19
2018-09-11T14:26:02.632Z,42.00
2018-09-11T14:27:55.566Z,41.80
2018-09-11T14:28:55.591Z,41.61
2018-09-11T14:30:48.523Z,42.02
2018-09-11T14:31:48.544Z,41.73
2018-09-11T14:33:41.464Z,41.93
2018-09-11T14:34:41.617Z,41.53
2018-09-11T14:36:34.423Z,42.02
2018-09-11T14:37:34.445Z,41.93
2018-09-11T14:39:27.369Z,41.93
2018-09-11T14:40:27.394Z,41.90
2018-09-11T14:42:20.315Z,42.29
2018-09-11T14:43:20.349Z,42.68
2018-09-11T14:45:13.290Z,42.29
2018-09-11T14:46:13.296Z,43.16
2018-09-11T14:48:06.231Z,42.39
2018-09-11T14:49:06.248Z,42.68
2018-09-11T14:50:59.184Z,42.58
2018-09-11T14:51:59.208Z,42.39
2018-09-11T14:54:52.595Z,42.10
2018-09-11T14:56:45.556Z,42.21
2018-09-11T14:57:45.581Z,42.31
2018-09-11T14:59:38.626Z,42.50
2018-09-11T15:00:38.535Z,41.93
2018-09-11T15:02:31.475Z,41.73
2018-09-11T15:03:31.511Z,42.11
2018-09-11T15:05:24.439Z,42.11
2018-09-11T15:06:24.458Z,42.11
2018-09-11T15:08:17.397Z,42.02
2018-09-11T15:09:17.413Z,41.93
2018-09-11T15:11:10.345Z,42.41
2018-09-11T15:12:10.357Z,42.41
2018-09-11T15:14:03.282Z,42.11
2018-09-11T15:15:03.344Z,42.02
2018-09-11T15:16:56.276Z,42.21
2018-09-11T15:17:56.260Z,42.33
2018-09-11T15:19:49.180Z,41.93
2018-09-11T15:20:49.214Z,42.41
2018-09-11T15:22:42.158Z,42.41
2018-09-11T15:23:42.161Z,41.73
2018-09-11T15:25:35.090Z,42.02
2018-09-11T15:26:35.118Z,41.93
2018-09-11T15:28:28.037Z,41.73
2018-09-11T15:29:28.059Z,41.85
2018-09-11T15:31:20.997Z,41.75
2018-09-11T15:32:21.014Z,42.04
2018-09-11T15:34:13.936Z,42.14
2018-09-11T15:35:13.970Z,41.85
2018-09-11T15:37:06.908Z,41.85
2018-09-11T15:38:06.947Z,41.85
2018-09-11T15:39:59.881Z,41.85
2018-09-11T15:40:59.878Z,42.24
2018-09-11T15:42:52.841Z,42.21
2018-09-11T15:43:52.901Z,42.41
2018-09-11T15:45:45.925Z,42.21
2018-09-11T15:46:45.831Z,42.50
2018-09-11T15:48:38.782Z,42.31
2018-09-11T15:49:38.785Z,42.50
2018-09-11T15:51:31.726Z,43.09
2018-09-11T15:52:31.741Z,42.99
2018-09-11T15:54:24.668Z,42.90
2018-09-11T15:55:24.780Z,42.68
2018-09-11T15:57:17.627Z,43.07
2018-09-11T15:58:17.643Z,43.46
2018-09-11T16:00:10.575Z,43.46
2018-09-11T16:01:10.603Z,43.29
2018-09-11T16:03:03.695Z,43.77
2018-09-11T16:04:03.583Z,42.50
2018-09-11T16:05:56.508Z,42.70
2018-09-11T16:06:56.572Z,42.97
2018-09-11T16:08:49.507Z,42.97
2018-09-11T16:09:49.491Z,42.68
2018-09-11T16:11:42.478Z,43.36
2018-09-11T16:12:42.437Z,43.26
2018-09-11T16:14:35.444Z,43.44
2018-09-11T16:15:35.422Z,43.54
2018-09-11T16:17:28.368Z,43.44
2018-09-11T16:18:28.361Z,43.54
2018-09-11T16:20:21.285Z,43.82
2018-09-11T16:21:21.315Z,43.92
2018-09-11T16:23:14.254Z,44.12
2018-09-11T16:24:14.270Z,44.02
2018-09-11T16:26:07.220Z,44.02
2018-09-11T16:27:07.231Z,44.02
2018-09-11T16:29:00.167Z,43.92
2018-09-11T16:30:00.239Z,44.21
2018-09-11T16:31:54.097Z,44.41
2018-09-11T16:32:54.128Z,43.82
2018-09-11T16:34:47.053Z,43.73
2018-09-11T16:35:47.091Z,43.82
2018-09-11T16:37:40.012Z,43.82
2018-09-11T16:38:40.046Z,43.80
2018-09-11T16:40:32.952Z,43.82
2018-09-11T16:41:32.993Z,43.92
2018-09-11T16:43:25.920Z,43.32
2018-09-11T16:44:25.938Z,43.61
2018-09-11T16:46:18.869Z,43.80
2018-09-11T16:47:18.899Z,44.00
2018-09-11T16:49:11.830Z,43.80
2018-09-11T16:50:11.851Z,43.61
2018-09-11T16:52:04.787Z,43.71
2018-09-11T16:53:04.823Z,43.80
2018-09-11T16:54:57.803Z,43.71
2018-09-11T16:55:57.790Z,43.90
2018-09-11T16:57:50.678Z,43.90
2018-09-11T16:58:50.705Z,43.90
2018-09-11T17:00:43.640Z,43.90
2018-09-11T17:01:43.658Z,43.78
2018-09-11T17:03:37.587Z,43.88
2018-09-11T17:04:37.611Z,44.27
2018-09-11T17:06:30.536Z,44.07
2018-09-11T17:07:30.558Z,44.07
2018-09-11T17:09:23.485Z,44.27
2018-09-11T17:10:23.503Z,44.17
2018-09-11T17:12:16.428Z,44.27
2018-09-11T17:13:16.465Z,44.27
2018-09-11T17:15:09.435Z,44.65
2018-09-11T17:16:09.427Z,44.73
2018-09-11T17:18:02.430Z,44.64
2018-09-11T17:19:02.411Z,44.83
2018-09-11T17:20:55.373Z,44.83
2018-09-11T17:21:55.367Z,44.73
2018-09-11T17:23:48.279Z,44.92
2018-09-11T17:24:48.295Z,45.61
2018-09-11T17:26:41.228Z,44.83
2018-09-11T17:27:41.249Z,44.73
2018-09-11T17:29:34.289Z,44.64
2018-09-11T17:30:34.190Z,44.73
2018-09-11T17:32:27.118Z,45.02
2018-09-11T17:33:27.152Z,44.92
2018-09-11T17:35:20.072Z,44.92
2018-09-11T17:36:20.088Z,45.10
2018-09-11T17:38:13.019Z,45.20
2018-09-11T17:39:13.047Z,45.29
2018-09-11T17:41:05.993Z,44.92
2018-09-11T17:42:06.007Z,45.12
2018-09-11T17:43:58.950Z,45.20
2018-09-11T17:44:58.972Z,45.31
2018-09-11T17:46:51.904Z,45.68
2018-09-11T17:47:51.931Z,45.78
2018-09-11T17:49:44.849Z,45.29
2018-09-11T17:50:44.863Z,45.58
2018-09-11T17:52:37.796Z,45.58
2018-09-11T17:53:37.878Z,45.68
2018-09-11T17:55:30.817Z,45.78
2018-09-11T17:56:31.008Z,46.16
2018-09-11T17:58:23.704Z,46.14
2018-09-11T17:59:23.727Z,46.33
2018-09-11T18:01:16.658Z,46.43
2018-09-11T18:02:16.679Z,46.62
2018-09-11T18:04:09.596Z,46.33
2018-09-11T18:05:09.631Z,46.72
2018-09-11T18:07:02.756Z,47.11
2018-09-11T18:08:02.774Z,46.82
2018-09-11T18:09:55.723Z,46.62
2018-09-11T18:10:55.724Z,46.72
2018-09-11T18:12:48.657Z,46.72
2018-09-11T18:13:48.682Z,46.82
2018-09-11T18:15:41.629Z,47.02
2018-09-11T18:16:41.698Z,47.02
2018-09-11T18:18:34.598Z,47.20
2018-09-11T18:19:34.576Z,47.20
2018-09-11T18:21:28.511Z,47.60
2018-09-11T18:22:28.534Z,47.20
2018-09-11T18:24:21.699Z,47.20
2018-09-11T18:25:21.730Z,47.60
2018-09-11T18:27:14.694Z,47.30
2018-09-11T18:28:14.715Z,47.50
2018-09-11T18:30:07.636Z,47.69
2018-09-11T18:31:07.623Z,47.50
2018-09-11T18:33:00.566Z,47.60
2018-09-11T18:34:00.572Z,47.30